createdAt,value
2023-12-05T00:03:00.936Z,30.52
2023-12-05T00:08:06.594Z,32.50
2023-12-05T00:13:11.401Z,35.13
2023-12-05T00:18:16.303Z,31.27
2023-12-05T00:23:21.119Z,31.58
2023-12-05T00:28:25.971Z,45.45
2023-12-05T00:33:30.716Z,43.20
2023-12-05T00:38:35.873Z,34.03
2023-12-05T00:43:40.894Z,35.92
2023-12-05T00:48:45.398Z,38.72
2023-12-05T00:53:51.006Z,34.13
2023-12-05T00:58:55.808Z,32.60
2023-12-05T01:04:00.741Z,28.98
2023-12-05T01:09:08.202Z,29.50
2023-12-05T01:14:12.870Z,208.23
2023-12-05T01:19:17.722Z,34.55
2023-12-05T01:24:22.435Z,51.33
2023-12-05T01:29:27.453Z,233.25
2023-12-05T01:34:32.276Z,28.05
2023-12-05T01:39:37.265Z,104.72
2023-12-05T01:44:42.292Z,51.22
2023-12-05T01:49:48.908Z,39.70
2023-12-05T01:54:54.736Z,26.08
2023-12-05T02:00:00.067Z,32.35
2023-12-05T02:05:06.723Z,46.33
2023-12-05T02:10:12.955Z,30.38
2023-12-05T02:15:18.454Z,36.90
2023-12-05T02:20:37.354Z,62.40
2023-12-05T02:26:00.716Z,34.30
2023-12-05T02:31:07.273Z,89.90
2023-12-05T02:36:21.881Z,36.03
2023-12-05T02:41:32.536Z,30.27
2023-12-05T02:46:39.162Z,55.20
2023-12-05T02:51:44.656Z,42.53
2023-12-05T02:56:49.738Z,45.60
2023-12-05T03:01:55.248Z,37.55
2023-12-05T03:07:00.689Z,30.63
2023-12-05T03:12:06.408Z,58.33
2023-12-05T03:17:11.749Z,33.78
2023-12-05T03:22:16.722Z,53.83
2023-12-05T03:27:21.656Z,76.90
2023-12-05T03:32:26.500Z,43.88
2023-12-05T03:37:31.166Z,37.30
2023-12-05T03:42:35.793Z,58.10
2023-12-05T03:47:40.682Z,72.07
2023-12-05T03:52:45.636Z,51.28
2023-12-05T03:57:51.123Z,69.88
2023-12-05T04:02:57.229Z,67.83
2023-12-05T04:08:02.332Z,46.63
2023-12-05T04:13:07.160Z,86.03
2023-12-05T04:18:12.296Z,72.95
2023-12-05T04:23:17.033Z,42.33
2023-12-05T04:28:21.659Z,101.05
2023-12-05T04:33:26.469Z,56.92
2023-12-05T04:38:31.754Z,45.22
2023-12-05T04:43:36.600Z,70.63
2023-12-05T04:48:41.517Z,86.82
2023-12-05T04:53:46.400Z,59.85
2023-12-05T04:58:51.472Z,62.40
2023-12-05T05:03:56.457Z,69.07
2023-12-05T05:09:07.247Z,51.17
2023-12-05T05:14:11.924Z,62.58
2023-12-05T05:19:16.885Z,67.18
2023-12-05T05:24:21.754Z,60.33
2023-12-05T05:29:26.811Z,53.22
2023-12-05T05:34:31.799Z,64.32
2023-12-05T05:39:36.830Z,57.03
2023-12-05T05:44:41.717Z,45.58
2023-12-05T05:49:47.230Z,78.57
2023-12-05T05:54:53.083Z,75.30
2023-12-05T05:59:58.150Z,70.60
2023-12-05T06:05:03.297Z,58.70
2023-12-05T06:10:08.923Z,90.88
2023-12-05T06:15:14.547Z,71.83
2023-12-05T06:20:19.467Z,52.60
2023-12-05T06:25:24.678Z,69.68
2023-12-05T06:30:30.007Z,91.87
2023-12-05T06:35:35.109Z,92.05
2023-12-05T06:40:40.131Z,71.05
2023-12-05T06:45:45.153Z,87.70
2023-12-05T06:50:50.311Z,88.22
2023-12-05T06:55:55.148Z,88.20
2023-12-05T07:01:00.620Z,114.93
2023-12-05T07:06:09.812Z,86.07
2023-12-05T07:11:16.778Z,107.85
2023-12-05T07:16:23.212Z,61.95
2023-12-05T07:21:28.291Z,96.68
2023-12-05T07:26:33.563Z,84.80
2023-12-05T07:31:38.966Z,81.50
2023-12-05T07:36:44.636Z,93.30
2023-12-05T07:41:49.439Z,106.47
2023-12-05T07:46:54.044Z,104.97
2023-12-05T07:51:58.770Z,114.07
2023-12-05T07:57:03.600Z,129.65
2023-12-05T08:02:09.329Z,109.13
2023-12-05T08:07:14.256Z,236.63
2023-12-05T08:12:19.089Z,145.43
2023-12-05T08:17:23.885Z,99.38
2023-12-05T08:22:28.901Z,125.43
2023-12-05T08:27:35.995Z,100.10
2023-12-05T08:32:40.637Z,124.03
2023-12-05T08:37:45.372Z,124.72
2023-12-05T08:42:50.388Z,139.23
2023-12-05T08:47:56.438Z,103.50
2023-12-05T08:53:01.558Z,223.05
2023-12-05T08:58:06.874Z,115.32
2023-12-05T09:03:11.749Z,152.98
2023-12-05T09:08:16.616Z,130.70
2023-12-05T09:13:21.194Z,143.23
2023-12-05T09:18:25.950Z,143.52
2023-12-05T09:23:30.502Z,140.60
2023-12-05T09:28:36.641Z,125.65
2023-12-05T09:38:45.696Z,132.77
2023-12-05T09:43:54.385Z,116.82
2023-12-05T09:49:03.091Z,127.70
2023-12-05T09:54:09.108Z,167.27
2023-12-05T09:59:14.735Z,156.80
2023-12-05T10:04:21.103Z,134.53
2023-12-05T10:09:27.382Z,134.00
2023-12-05T10:19:37.811Z,161.88
2023-12-05T10:24:45.702Z,116.40
2023-12-05T10:29:50.277Z,188.75
2023-12-05T10:34:56.646Z,163.38
2023-12-05T10:45:10.770Z,143.90
2023-12-05T10:50:15.671Z,111.78
2023-12-05T10:55:27.108Z,139.18
2023-12-05T11:00:32.313Z,182.80
2023-12-05T11:05:38.031Z,197.00
2023-12-05T11:10:42.699Z,175.03
2023-12-05T11:15:50.635Z,185.50
2023-12-05T11:21:03.745Z,179.25
2023-12-05T11:26:48.364Z,160.10
2023-12-05T11:31:56.375Z,140.02
2023-12-05T11:37:04.303Z,147.77
2023-12-05T11:42:16.796Z,184.93
2023-12-05T11:47:31.161Z,191.27
2023-12-05T11:52:41.685Z,158.07
2023-12-05T11:57:46.353Z,220.88
2023-12-05T12:02:59.039Z,164.48
2023-12-05T12:08:04.062Z,203.15
2023-12-05T12:13:08.923Z,149.48
2023-12-05T12:18:13.883Z,182.30
2023-12-05T12:23:19.003Z,163.48
2023-12-05T12:28:28.497Z,179.85
2023-12-05T12:33:43.975Z,206.25
2023-12-05T12:38:50.031Z,178.37
2023-12-05T12:43:56.003Z,180.80
2023-12-05T12:49:04.296Z,199.57
2023-12-05T12:54:10.875Z,226.60
2023-12-05T12:59:15.694Z,248.38
2023-12-05T13:04:21.202Z,213.23
2023-12-05T13:09:28.112Z,175.63
2023-12-05T13:14:34.074Z,198.43
2023-12-05T13:19:40.837Z,222.65
2023-12-05T13:24:46.202Z,212.43
2023-12-05T13:29:55.239Z,224.57
2023-12-05T13:35:00.544Z,231.85
2023-12-05T13:40:06.840Z,182.48
2023-12-05T13:50:30.236Z,190.43
2023-12-05T13:55:38.650Z,212.32
2023-12-05T14:00:44.192Z,208.43
2023-12-05T14:05:49.698Z,185.20
2023-12-05T14:10:55.434Z,177.93
2023-12-05T14:16:00.807Z,167.52
2023-12-05T14:21:06.918Z,202.52
2023-12-05T14:26:12.158Z,170.48
2023-12-05T14:31:17.708Z,180.93
2023-12-05T14:36:23.210Z,175.37
2023-12-05T14:41:28.977Z,190.30
2023-12-05T14:46:34.100Z,194.93
2023-12-05T14:51:39.298Z,191.43
2023-12-05T14:56:44.478Z,167.73
2023-12-05T15:01:50.118Z,200.40
2023-12-05T15:06:57.138Z,198.02
2023-12-05T15:12:04.983Z,187.95
2023-12-05T15:17:10.140Z,179.13
2023-12-05T15:22:15.222Z,177.60
2023-12-05T15:27:20.708Z,179.30
2023-12-05T15:37:33.580Z,186.67
2023-12-05T15:42:39.203Z,215.37
2023-12-05T15:47:44.758Z,179.73
2023-12-05T15:52:50.749Z,185.00
2023-12-05T15:57:56.044Z,218.43
2023-12-05T16:03:01.625Z,224.77
2023-12-05T16:08:07.811Z,212.23
2023-12-05T16:13:13.244Z,213.77
2023-12-05T16:18:18.649Z,216.27
2023-12-05T16:23:25.310Z,205.23
2023-12-05T16:28:33.455Z,211.88
2023-12-05T16:33:40.199Z,238.25
2023-12-05T16:38:45.263Z,194.35
2023-12-05T16:43:51.009Z,215.27
2023-12-05T16:48:56.319Z,200.30
2023-12-05T16:54:01.386Z,242.10
2023-12-05T16:59:06.736Z,265.83
2023-12-05T17:09:21.058Z,213.65
2023-12-05T17:14:26.348Z,221.80
2023-12-05T17:19:32.518Z,240.25
2023-12-05T17:24:39.142Z,225.25
2023-12-05T17:29:44.280Z,206.43
2023-12-05T17:34:49.452Z,215.90
2023-12-05T17:39:55.152Z,222.73
2023-12-05T17:45:00.383Z,196.97
2023-12-05T17:50:05.941Z,186.60
2023-12-05T17:55:12.658Z,238.30
2023-12-05T18:00:18.800Z,154.77
2023-12-05T18:05:23.965Z,210.73
2023-12-05T18:10:29.790Z,214.60
2023-12-05T18:15:35.090Z,208.27
2023-12-05T18:20:40.224Z,172.23
2023-12-05T18:25:45.187Z,181.73
2023-12-05T18:30:50.582Z,199.02
2023-12-05T18:35:55.729Z,192.70
2023-12-05T18:41:00.809Z,203.43
2023-12-05T18:46:06.189Z,228.10
2023-12-05T18:51:11.315Z,176.67
2023-12-05T18:56:16.383Z,225.48
2023-12-05T19:01:21.702Z,187.90
2023-12-05T19:06:28.205Z,170.57
2023-12-05T19:11:33.351Z,179.67
2023-12-05T19:16:38.512Z,150.85
2023-12-05T19:21:48.839Z,169.05
2023-12-05T19:26:56.710Z,185.93
2023-12-05T19:32:01.791Z,155.18
2023-12-05T19:37:07.181Z,182.95
2023-12-05T19:42:17.798Z,157.87
2023-12-05T19:47:25.607Z,158.27
2023-12-05T19:52:30.654Z,138.25
2023-12-05T19:57:35.941Z,175.90
2023-12-05T20:02:41.024Z,130.68
2023-12-05T20:07:46.051Z,158.65
2023-12-05T20:12:51.141Z,142.63
2023-12-05T20:17:56.282Z,140.18
2023-12-05T20:23:01.737Z,149.82
2023-12-05T20:28:07.141Z,159.37
2023-12-05T20:33:12.205Z,142.07
2023-12-05T20:38:17.437Z,120.93
2023-12-05T20:43:22.668Z,111.78
2023-12-05T20:48:29.981Z,130.18
2023-12-05T20:53:36.208Z,118.78
2023-12-05T20:58:41.756Z,127.22
2023-12-05T21:03:47.989Z,112.73
2023-12-05T21:09:10.981Z,114.53
2023-12-05T21:14:18.454Z,76.72
2023-12-05T21:19:26.007Z,99.50
2023-12-05T21:24:34.972Z,110.70
2023-12-05T21:29:42.081Z,93.18
2023-12-05T21:34:47.616Z,104.38
2023-12-05T21:39:53.044Z,106.60
2023-12-05T21:44:58.158Z,67.03
2023-12-05T21:50:03.243Z,102.38
2023-12-05T21:55:10.060Z,68.63
2023-12-05T22:00:15.837Z,76.00
2023-12-05T22:05:23.814Z,60.30
2023-12-05T22:10:30.097Z,80.13
2023-12-05T22:15:35.563Z,74.00
2023-12-05T22:20:40.820Z,88.97
2023-12-05T22:25:46.049Z,64.40
2023-12-05T22:30:51.232Z,74.47
2023-12-05T22:35:56.547Z,54.67
2023-12-05T22:41:02.252Z,74.30
2023-12-05T22:46:14.785Z,59.50
2023-12-05T22:51:20.155Z,63.90
2023-12-05T22:56:25.464Z,58.50
2023-12-05T23:01:30.964Z,49.40
2023-12-05T23:06:36.393Z,52.20
2023-12-05T23:11:41.563Z,50.13
2023-12-05T23:16:47.045Z,44.35
2023-12-05T23:21:52.823Z,44.53
2023-12-05T23:26:58.119Z,44.63
2023-12-05T23:32:03.299Z,35.63
2023-12-05T23:37:08.528Z,33.95
2023-12-05T23:42:13.712Z,32.42
2023-12-05T23:47:21.846Z,31.23
2023-12-05T23:52:28.710Z,30.80
2023-12-05T23:57:33.829Z,31.52
